CYOW/YOW METAR and TAF weather

Enter ICAO airport designator
Station Type Date Time Source
CYOW METAR 2019/08/19 12:00 UTC NOAA

CYOW 191200Z 21006KT 15SM -RA BKN006 OVC023 21/21 A2986 RMK SF6SC2 SLP111 DENSITY ALT 1300FT


Station Type Date Time Source
CYOW Decoded METAR 2019/08/19 12:00 UTC NOAA

Station name not available
Aug 19, 2019 - 08:00 AM EDT / 2019.08.19 1200 UTC
Wind: from the SSW (210 degrees) at 7 MPH (6 KT):0
Visibility: 15 mile(s):0
Sky conditions: overcast
Weather: light rain
Temperature: 69 F (21 C)
Dew Point: 69 F (21 C)
Relative Humidity: 100%
Pressure (altimeter): 29.86 in. Hg (1011 hPa)
ob: CYOW 191200Z 21006KT 15SM -RA BKN006 OVC023 21/21 A2986 RMK SF6SC2 SLP111 DENSITY ALT 1300FT
cycle: 12

Station Type Date Time Source
CYOW TAF 2019/08/19 12:42 UTC NOAA

TAF CYOW 191138Z 1912/2012 23008KT P6SM FEW006 BKN050 BKN120
TEMPO 1912/1914 BKN006 OVC050
FM191400 24010KT P6SM BKN040
BECMG 1916/1918 25010G20KT
FM192000 28010G20KT P6SM FEW050
BECMG 1922/1924 29010KT
BECMG 2004/2006 30005KT
RMK NXT FCST BY 191500Z

Example: see airport list